sensor_id;sensor_type;location;lat;lon;timestamp;P1;durP1;ratioP1;P2;durP2;ratioP2
70071;SDS011;57434;42.794;23.302;2023-01-15T00:00:43;27.33;;;11.13;;
70071;SDS011;57434;42.794;23.302;2023-01-15T00:01:44;24.25;;;9.75;;
70071;SDS011;57434;42.794;23.302;2023-01-15T00:02:46;26.33;;;11.98;;
70071;SDS011;57434;42.794;23.302;2023-01-15T00:03:48;27.30;;;11.60;;
70071;SDS011;57434;42.794;23.302;2023-01-15T00:04:50;25.30;;;10.63;;
70071;SDS011;57434;42.794;23.302;2023-01-15T00:05:52;28.48;;;10.57;;
70071;SDS011;57434;42.794;23.302;2023-01-15T00:06:54;24.67;;;10.07;;
70071;SDS011;57434;42.794;23.302;2023-01-15T00:07:56;23.67;;;10.25;;
70071;SDS011;57434;42.794;23.302;2023-01-15T00:08:57;28.55;;;10.70;;
70071;SDS011;57434;42.794;23.302;2023-01-15T00:09:59;27.67;;;10.70;;
70071;SDS011;57434;42.794;23.302;2023-01-15T00:11:04;24.75;;;10.95;;
70071;SDS011;57434;42.794;23.302;2023-01-15T00:12:06;26.52;;;10.13;;
70071;SDS011;57434;42.794;23.302;2023-01-15T00:13:08;25.70;;;11.70;;
70071;SDS011;57434;42.794;23.302;2023-01-15T00:14:11;27.88;;;11.55;;
70071;SDS011;57434;42.794;23.302;2023-01-15T00:15:13;26.87;;;12.03;;
70071;SDS011;57434;42.794;23.302;2023-01-15T00:16:16;28.27;;;11.40;;
70071;SDS011;57434;42.794;23.302;2023-01-15T00:17:20;26.05;;;11.73;;
70071;SDS011;57434;42.794;23.302;2023-01-15T00:18:22;28.40;;;12.10;;
70071;SDS011;57434;42.794;23.302;2023-01-15T00:19:23;31.60;;;12.80;;
70071;SDS011;57434;42.794;23.302;2023-01-15T00:20:25;27.25;;;11.60;;
70071;SDS011;57434;42.794;23.302;2023-01-15T00:21:27;26.17;;;11.55;;
70071;SDS011;57434;42.794;23.302;2023-01-15T00:22:29;30.40;;;11.82;;
70071;SDS011;57434;42.794;23.302;2023-01-15T00:23:31;28.92;;;12.05;;
70071;SDS011;57434;42.794;23.302;2023-01-15T00:24:33;30.05;;;12.15;;
70071;SDS011;57434;42.794;23.302;2023-01-15T00:25:35;31.03;;;12.23;;
70071;SDS011;57434;42.794;23.302;2023-01-15T00:26:37;29.65;;;11.80;;
70071;SDS011;57434;42.794;23.302;2023-01-15T00:27:39;27.23;;;12.20;;
70071;SDS011;57434;42.794;23.302;2023-01-15T00:28:41;28.67;;;11.90;;
70071;SDS011;57434;42.794;23.302;2023-01-15T00:29:43;31.45;;;11.65;;
70071;SDS011;57434;42.794;23.302;2023-01-15T00:30:44;26.33;;;12.23;;
70071;SDS011;57434;42.794;23.302;2023-01-15T00:31:53;31.10;;;12.27;;
70071;SDS011;57434;42.794;23.302;2023-01-15T00:32:58;28.85;;;12.48;;
70071;SDS011;57434;42.794;23.302;2023-01-15T00:34:00;31.75;;;12.43;;
70071;SDS011;57434;42.794;23.302;2023-01-15T00:35:02;29.60;;;13.05;;
70071;SDS011;57434;42.794;23.302;2023-01-15T00:36:04;31.63;;;11.87;;
70071;SDS011;57434;42.794;23.302;2023-01-15T00:37:06;27.75;;;12.10;;
70071;SDS011;57434;42.794;23.302;2023-01-15T00:38:08;28.63;;;11.38;;
70071;SDS011;57434;42.794;23.302;2023-01-15T00:39:10;26.70;;;12.85;;
70071;SDS011;57434;42.794;23.302;2023-01-15T00:40:12;24.55;;;12.02;;
70071;SDS011;57434;42.794;23.302;2023-01-15T00:41:15;27.65;;;11.57;;
70071;SDS011;57434;42.794;23.302;2023-01-15T00:42:18;28.60;;;11.68;;
70071;SDS011;57434;42.794;23.302;2023-01-15T00:43:21;30.27;;;12.70;;
70071;SDS011;57434;42.794;23.302;2023-01-15T00:44:22;27.73;;;12.48;;
70071;SDS011;57434;42.794;23.302;2023-01-15T00:45:24;25.00;;;10.05;;
70071;SDS011;57434;42.794;23.302;2023-01-15T00:46:26;28.37;;;11.57;;
70071;SDS011;57434;42.794;23.302;2023-01-15T00:47:28;27.75;;;11.65;;
70071;SDS011;57434;42.794;23.302;2023-01-15T00:48:30;27.15;;;11.75;;
70071;SDS011;57434;42.794;23.302;2023-01-15T00:49:33;25.42;;;12.05;;
70071;SDS011;57434;42.794;23.302;2023-01-15T00:50:34;27.08;;;11.88;;
70071;SDS011;57434;42.794;23.302;2023-01-15T00:51:36;25.38;;;12.05;;
70071;SDS011;57434;42.794;23.302;2023-01-15T00:52:38;26.95;;;10.93;;
70071;SDS011;57434;42.794;23.302;2023-01-15T00:53:40;23.45;;;11.27;;
70071;SDS011;57434;42.794;23.302;2023-01-15T00:54:42;25.05;;;12.05;;
70071;SDS011;57434;42.794;23.302;2023-01-15T00:55:44;25.83;;;11.02;;
70071;SDS011;57434;42.794;23.302;2023-01-15T00:56:46;28.20;;;11.27;;
70071;SDS011;57434;42.794;23.302;2023-01-15T00:57:47;25.65;;;10.82;;
70071;SDS011;57434;42.794;23.302;2023-01-15T00:58:49;27.55;;;11.02;;
70071;SDS011;57434;42.794;23.302;2023-01-15T00:59:51;27.13;;;10.40;;
70071;SDS011;57434;42.794;23.302;2023-01-15T01:00:53;27.05;;;11.27;;
70071;SDS011;57434;42.794;23.302;2023-01-15T01:01:59;30.42;;;11.23;;
70071;SDS011;57434;42.794;23.302;2023-01-15T01:03:01;24.33;;;10.40;;
70071;SDS011;57434;42.794;23.302;2023-01-15T01:04:03;25.98;;;11.35;;
70071;SDS011;57434;42.794;23.302;2023-01-15T01:05:05;24.98;;;11.23;;
70071;SDS011;57434;42.794;23.302;2023-01-15T01:06:07;25.63;;;11.20;;
70071;SDS011;57434;42.794;23.302;2023-01-15T01:07:09;26.13;;;10.70;;
70071;SDS011;57434;42.794;23.302;2023-01-15T01:08:11;28.65;;;11.02;;
70071;SDS011;57434;42.794;23.302;2023-01-15T01:09:13;27.35;;;11.60;;
70071;SDS011;57434;42.794;23.302;2023-01-15T01:10:16;29.80;;;11.40;;
70071;SDS011;57434;42.794;23.302;2023-01-15T01:11:20;27.15;;;12.10;;
70071;SDS011;57434;42.794;23.302;2023-01-15T01:12:23;25.40;;;11.45;;
70071;SDS011;57434;42.794;23.302;2023-01-15T01:13:24;27.38;;;10.93;;
70071;SDS011;57434;42.794;23.302;2023-01-15T01:14:26;26.23;;;10.48;;
70071;SDS011;57434;42.794;23.302;2023-01-15T01:15:29;25.73;;;10.25;;
70071;SDS011;57434;42.794;23.302;2023-01-15T01:16:34;27.63;;;10.60;;
70071;SDS011;57434;42.794;23.302;2023-01-15T01:17:38;25.43;;;11.93;;
70071;SDS011;57434;42.794;23.302;2023-01-15T01:18:40;35.13;;;10.93;;
70071;SDS011;57434;42.794;23.302;2023-01-15T01:19:41;26.13;;;10.55;;
70071;SDS011;57434;42.794;23.302;2023-01-15T01:20:43;25.17;;;10.43;;
70071;SDS011;57434;42.794;23.302;2023-01-15T01:21:45;26.75;;;10.57;;
70071;SDS011;57434;42.794;23.302;2023-01-15T01:22:48;25.38;;;10.57;;
70071;SDS011;57434;42.794;23.302;2023-01-15T01:23:50;25.92;;;10.02;;
70071;SDS011;57434;42.794;23.302;2023-01-15T01:24:52;28.17;;;11.10;;
70071;SDS011;57434;42.794;23.302;2023-01-15T01:25:53;22.80;;;11.10;;
70071;SDS011;57434;42.794;23.302;2023-01-15T01:26:55;22.52;;;10.57;;
70071;SDS011;57434;42.794;23.302;2023-01-15T01:27:57;27.93;;;12.10;;
70071;SDS011;57434;42.794;23.302;2023-01-15T01:28:59;30.63;;;11.18;;
70071;SDS011;57434;42.794;23.302;2023-01-15T01:30:00;26.88;;;10.63;;
70071;SDS011;57434;42.794;23.302;2023-01-15T01:31:03;25.38;;;10.30;;
70071;SDS011;57434;42.794;23.302;2023-01-15T01:32:06;30.33;;;11.77;;
70071;SDS011;57434;42.794;23.302;2023-01-15T01:33:07;25.50;;;11.02;;
70071;SDS011;57434;42.794;23.302;2023-01-15T01:34:09;29.65;;;12.77;;
70071;SDS011;57434;42.794;23.302;2023-01-15T01:35:12;24.75;;;12.15;;
70071;SDS011;57434;42.794;23.302;2023-01-15T01:36:14;24.90;;;10.23;;
70071;SDS011;57434;42.794;23.302;2023-01-15T01:37:16;30.05;;;11.75;;
70071;SDS011;57434;42.794;23.302;2023-01-15T01:38:18;26.20;;;10.53;;
70071;SDS011;57434;42.794;23.302;2023-01-15T01:39:20;25.40;;;11.60;;
70071;SDS011;57434;42.794;23.302;2023-01-15T01:40:21;25.52;;;11.30;;
70071;SDS011;57434;42.794;23.302;2023-01-15T01:41:23;25.40;;;10.80;;
70071;SDS011;57434;42.794;23.302;2023-01-15T01:42:26;26.25;;;11.80;;
70071;SDS011;57434;42.794;23.302;2023-01-15T01:43:28;24.63;;;9.82;;
70071;SDS011;57434;42.794;23.302;2023-01-15T01:45:33;29.83;;;10.52;;
70071;SDS011;57434;42.794;23.302;2023-01-15T01:46:35;26.02;;;10.73;;
70071;SDS011;57434;42.794;23.302;2023-01-15T01:47:37;29.25;;;10.98;;
70071;SDS011;57434;42.794;23.302;2023-01-15T01:48:38;27.00;;;11.80;;
70071;SDS011;57434;42.794;23.302;2023-01-15T01:49:40;28.30;;;11.65;;
70071;SDS011;57434;42.794;23.302;2023-01-15T01:50:45;26.77;;;11.13;;
70071;SDS011;57434;42.794;23.302;2023-01-15T01:51:51;22.10;;;11.20;;
70071;SDS011;57434;42.794;23.302;2023-01-15T01:53:18;24.17;;;10.60;;
70071;SDS011;57434;42.794;23.302;2023-01-15T01:54:23;29.23;;;11.93;;
70071;SDS011;57434;42.794;23.302;2023-01-15T01:55:27;24.73;;;11.63;;
70071;SDS011;57434;42.794;23.302;2023-01-15T01:56:31;27.23;;;11.32;;
70071;SDS011;57434;42.794;23.302;2023-01-15T01:57:36;21.38;;;10.23;;
70071;SDS011;57434;42.794;23.302;2023-01-15T01:58:38;26.52;;;10.93;;
70071;SDS011;57434;42.794;23.302;2023-01-15T01:59:40;32.13;;;11.47;;
70071;SDS011;57434;42.794;23.302;2023-01-15T02:00:44;26.40;;;11.38;;
70071;SDS011;57434;42.794;23.302;2023-01-15T02:01:48;30.95;;;13.10;;
70071;SDS011;57434;42.794;23.302;2023-01-15T02:02:51;26.48;;;11.68;;
70071;SDS011;57434;42.794;23.302;2023-01-15T02:03:54;29.73;;;11.43;;
70071;SDS011;57434;42.794;23.302;2023-01-15T02:04:56;26.85;;;11.38;;
70071;SDS011;57434;42.794;23.302;2023-01-15T02:05:58;34.50;;;13.60;;
70071;SDS011;57434;42.794;23.302;2023-01-15T02:07:03;33.38;;;13.20;;
70071;SDS011;57434;42.794;23.302;2023-01-15T02:08:05;27.20;;;12.25;;
70071;SDS011;57434;42.794;23.302;2023-01-15T02:09:07;30.42;;;12.63;;
70071;SDS011;57434;42.794;23.302;2023-01-15T02:10:13;30.57;;;12.40;;
70071;SDS011;57434;42.794;23.302;2023-01-15T02:11:18;32.17;;;11.95;;
70071;SDS011;57434;42.794;23.302;2023-01-15T02:12:27;30.58;;;12.40;;
70071;SDS011;57434;42.794;23.302;2023-01-15T02:14:42;28.60;;;11.90;;
70071;SDS011;57434;42.794;23.302;2023-01-15T02:15:59;30.98;;;11.40;;
70071;SDS011;57434;42.794;23.302;2023-01-15T02:17:41;26.83;;;11.25;;
70071;SDS011;57434;42.794;23.302;2023-01-15T02:20:42;27.27;;;10.63;;
70071;SDS011;57434;42.794;23.302;2023-01-15T02:24:22;25.83;;;10.07;;
70071;SDS011;57434;42.794;23.302;2023-01-15T02:26:39;29.40;;;11.70;;
70071;SDS011;57434;42.794;23.302;2023-01-15T02:28:07;27.90;;;10.38;;
70071;SDS011;57434;42.794;23.302;2023-01-15T02:31:10;26.70;;;10.60;;
70071;SDS011;57434;42.794;23.302;2023-01-15T02:32:23;25.17;;;10.48;;
70071;SDS011;57434;42.794;23.302;2023-01-15T02:33:50;25.52;;;10.82;;
70071;SDS011;57434;42.794;23.302;2023-01-15T02:35:06;24.80;;;9.73;;
70071;SDS011;57434;42.794;23.302;2023-01-15T02:36:31;23.97;;;10.17;;
70071;SDS011;57434;42.794;23.302;2023-01-15T02:37:36;22.65;;;10.15;;
70071;SDS011;57434;42.794;23.302;2023-01-15T02:38:46;25.35;;;10.88;;
70071;SDS011;57434;42.794;23.302;2023-01-15T02:39:49;25.92;;;10.07;;
70071;SDS011;57434;42.794;23.302;2023-01-15T02:40:53;30.67;;;11.65;;
70071;SDS011;57434;42.794;23.302;2023-01-15T02:41:59;27.92;;;11.27;;
70071;SDS011;57434;42.794;23.302;2023-01-15T02:43:04;29.58;;;11.63;;
70071;SDS011;57434;42.794;23.302;2023-01-15T02:44:08;30.60;;;11.15;;
70071;SDS011;57434;42.794;23.302;2023-01-15T02:45:12;28.45;;;11.68;;
70071;SDS011;57434;42.794;23.302;2023-01-15T02:46:23;34.67;;;12.38;;
70071;SDS011;57434;42.794;23.302;2023-01-15T02:47:31;30.17;;;12.40;;
70071;SDS011;57434;42.794;23.302;2023-01-15T02:48:35;26.00;;;11.27;;
70071;SDS011;57434;42.794;23.302;2023-01-15T02:49:41;27.33;;;11.57;;
70071;SDS011;57434;42.794;23.302;2023-01-15T02:50:49;27.80;;;11.43;;
70071;SDS011;57434;42.794;23.302;2023-01-15T02:52:00;31.15;;;12.10;;
70071;SDS011;57434;42.794;23.302;2023-01-15T02:53:14;21.75;;;10.30;;
70071;SDS011;57434;42.794;23.302;2023-01-15T02:54:20;29.80;;;11.50;;
70071;SDS011;57434;42.794;23.302;2023-01-15T02:55:25;25.77;;;11.50;;
70071;SDS011;57434;42.794;23.302;2023-01-15T02:56:31;31.90;;;11.27;;
70071;SDS011;57434;42.794;23.302;2023-01-15T02:57:36;25.67;;;11.45;;
70071;SDS011;57434;42.794;23.302;2023-01-15T03:00:20;27.23;;;10.13;;
70071;SDS011;57434;42.794;23.302;2023-01-15T03:01:27;24.80;;;10.85;;
70071;SDS011;57434;42.794;23.302;2023-01-15T03:02:45;25.38;;;9.82;;
70071;SDS011;57434;42.794;23.302;2023-01-15T03:04:16;24.40;;;10.65;;
70071;SDS011;57434;42.794;23.302;2023-01-15T03:05:37;27.98;;;9.63;;
70071;SDS011;57434;42.794;23.302;2023-01-15T03:06:48;25.40;;;9.82;;
70071;SDS011;57434;42.794;23.302;2023-01-15T03:07:53;24.48;;;9.60;;
70071;SDS011;57434;42.794;23.302;2023-01-15T03:08:57;22.63;;;10.40;;
70071;SDS011;57434;42.794;23.302;2023-01-15T03:09:59;24.23;;;9.98;;
70071;SDS011;57434;42.794;23.302;2023-01-15T03:13:23;29.30;;;11.77;;
70071;SDS011;57434;42.794;23.302;2023-01-15T03:14:50;30.55;;;11.95;;
70071;SDS011;57434;42.794;23.302;2023-01-15T03:16:05;31.85;;;10.93;;
70071;SDS011;57434;42.794;23.302;2023-01-15T03:17:17;27.65;;;11.30;;
70071;SDS011;57434;42.794;23.302;2023-01-15T03:18:22;27.27;;;11.25;;
70071;SDS011;57434;42.794;23.302;2023-01-15T03:20:28;27.80;;;11.50;;
70071;SDS011;57434;42.794;23.302;2023-01-15T03:21:34;23.15;;;10.38;;
70071;SDS011;57434;42.794;23.302;2023-01-15T03:22:58;27.37;;;10.43;;
70071;SDS011;57434;42.794;23.302;2023-01-15T03:24:07;26.42;;;10.80;;
70071;SDS011;57434;42.794;23.302;2023-01-15T03:25:16;26.17;;;11.02;;
70071;SDS011;57434;42.794;23.302;2023-01-15T03:26:22;24.38;;;9.90;;
70071;SDS011;57434;42.794;23.302;2023-01-15T03:27:24;23.15;;;10.02;;
70071;SDS011;57434;42.794;23.302;2023-01-15T03:28:26;27.90;;;10.75;;
70071;SDS011;57434;42.794;23.302;2023-01-15T03:29:36;22.58;;;8.93;;
70071;SDS011;57434;42.794;23.302;2023-01-15T03:30:40;22.48;;;9.13;;
70071;SDS011;57434;42.794;23.302;2023-01-15T03:31:42;25.30;;;10.75;;
70071;SDS011;57434;42.794;23.302;2023-01-15T03:32:44;25.23;;;10.43;;
70071;SDS011;57434;42.794;23.302;2023-01-15T03:33:46;24.50;;;10.67;;
70071;SDS011;57434;42.794;23.302;2023-01-15T03:34:49;24.73;;;9.68;;
70071;SDS011;57434;42.794;23.302;2023-01-15T03:35:55;28.20;;;11.02;;
70071;SDS011;57434;42.794;23.302;2023-01-15T03:36:58;21.63;;;9.88;;
70071;SDS011;57434;42.794;23.302;2023-01-15T03:38:00;22.48;;;9.48;;
70071;SDS011;57434;42.794;23.302;2023-01-15T03:39:02;24.30;;;10.15;;
70071;SDS011;57434;42.794;23.302;2023-01-15T03:40:05;27.50;;;10.90;;
70071;SDS011;57434;42.794;23.302;2023-01-15T03:41:15;27.70;;;10.70;;
70071;SDS011;57434;42.794;23.302;2023-01-15T03:43:49;24.25;;;9.50;;
70071;SDS011;57434;42.794;23.302;2023-01-15T03:45:04;26.37;;;9.97;;
70071;SDS011;57434;42.794;23.302;2023-01-15T03:46:20;21.23;;;8.55;;
70071;SDS011;57434;42.794;23.302;2023-01-15T03:47:31;21.52;;;8.95;;
70071;SDS011;57434;42.794;23.302;2023-01-15T03:48:43;22.00;;;9.45;;
70071;SDS011;57434;42.794;23.302;2023-01-15T03:49:59;23.08;;;9.80;;
70071;SDS011;57434;42.794;23.302;2023-01-15T03:51:35;23.48;;;8.85;;
70071;SDS011;57434;42.794;23.302;2023-01-15T03:54:14;27.30;;;11.98;;
70071;SDS011;57434;42.794;23.302;2023-01-15T03:55:26;31.10;;;12.60;;
70071;SDS011;57434;42.794;23.302;2023-01-15T03:56:45;31.30;;;12.02;;
70071;SDS011;57434;42.794;23.302;2023-01-15T03:58:08;33.30;;;15.60;;
70071;SDS011;57434;42.794;23.302;2023-01-15T03:59:23;28.77;;;11.43;;
70071;SDS011;57434;42.794;23.302;2023-01-15T04:00:35;50.90;;;22.60;;
70071;SDS011;57434;42.794;23.302;2023-01-15T04:02:05;33.15;;;15.07;;
70071;SDS011;57434;42.794;23.302;2023-01-15T04:03:11;26.00;;;10.13;;
70071;SDS011;57434;42.794;23.302;2023-01-15T04:04:14;25.30;;;9.70;;
70071;SDS011;57434;42.794;23.302;2023-01-15T04:05:16;26.80;;;12.52;;
70071;SDS011;57434;42.794;23.302;2023-01-15T04:06:19;27.60;;;12.93;;
70071;SDS011;57434;42.794;23.302;2023-01-15T04:07:22;26.58;;;12.10;;
70071;SDS011;57434;42.794;23.302;2023-01-15T04:08:25;26.00;;;10.57;;
70071;SDS011;57434;42.794;23.302;2023-01-15T04:09:31;27.17;;;10.57;;
70071;SDS011;57434;42.794;23.302;2023-01-15T04:10:49;24.13;;;10.05;;
70071;SDS011;57434;42.794;23.302;2023-01-15T04:11:58;23.33;;;9.32;;
70071;SDS011;57434;42.794;23.302;2023-01-15T04:13:01;25.60;;;9.98;;
70071;SDS011;57434;42.794;23.302;2023-01-15T04:14:03;24.58;;;9.35;;
70071;SDS011;57434;42.794;23.302;2023-01-15T04:15:05;24.85;;;9.90;;
70071;SDS011;57434;42.794;23.302;2023-01-15T04:16:07;22.05;;;9.88;;
70071;SDS011;57434;42.794;23.302;2023-01-15T04:17:09;21.95;;;9.80;;
70071;SDS011;57434;42.794;23.302;2023-01-15T04:18:11;20.60;;;9.43;;
70071;SDS011;57434;42.794;23.302;2023-01-15T04:19:13;27.67;;;11.05;;
70071;SDS011;57434;42.794;23.302;2023-01-15T04:20:16;26.60;;;11.00;;
70071;SDS011;57434;42.794;23.302;2023-01-15T04:21:19;25.52;;;10.57;;
70071;SDS011;57434;42.794;23.302;2023-01-15T04:22:21;25.92;;;8.98;;
70071;SDS011;57434;42.794;23.302;2023-01-15T04:23:23;24.98;;;10.27;;
70071;SDS011;57434;42.794;23.302;2023-01-15T04:24:25;26.90;;;10.18;;
70071;SDS011;57434;42.794;23.302;2023-01-15T04:25:27;24.77;;;9.85;;
70071;SDS011;57434;42.794;23.302;2023-01-15T04:26:28;24.38;;;10.23;;
70071;SDS011;57434;42.794;23.302;2023-01-15T04:27:30;28.25;;;9.95;;
70071;SDS011;57434;42.794;23.302;2023-01-15T04:28:32;23.00;;;9.60;;
70071;SDS011;57434;42.794;23.302;2023-01-15T04:29:34;23.35;;;10.68;;
70071;SDS011;57434;42.794;23.302;2023-01-15T04:30:36;28.60;;;11.87;;
70071;SDS011;57434;42.794;23.302;2023-01-15T04:31:38;29.83;;;12.70;;
70071;SDS011;57434;42.794;23.302;2023-01-15T04:32:40;26.40;;;10.90;;
70071;SDS011;57434;42.794;23.302;2023-01-15T04:33:42;29.02;;;11.80;;
70071;SDS011;57434;42.794;23.302;2023-01-15T04:34:43;34.08;;;13.20;;
70071;SDS011;57434;42.794;23.302;2023-01-15T04:35:45;30.15;;;12.43;;
70071;SDS011;57434;42.794;23.302;2023-01-15T04:36:47;29.10;;;12.00;;
70071;SDS011;57434;42.794;23.302;2023-01-15T04:37:52;35.28;;;13.65;;
70071;SDS011;57434;42.794;23.302;2023-01-15T04:38:58;27.90;;;11.13;;
70071;SDS011;57434;42.794;23.302;2023-01-15T04:40:00;31.70;;;11.82;;
70071;SDS011;57434;42.794;23.302;2023-01-15T04:41:02;29.10;;;12.67;;
70071;SDS011;57434;42.794;23.302;2023-01-15T04:42:05;30.58;;;12.15;;
70071;SDS011;57434;42.794;23.302;2023-01-15T04:43:08;28.05;;;12.18;;
70071;SDS011;57434;42.794;23.302;2023-01-15T04:44:12;29.40;;;12.18;;
70071;SDS011;57434;42.794;23.302;2023-01-15T04:45:14;27.63;;;11.27;;
70071;SDS011;57434;42.794;23.302;2023-01-15T04:46:21;30.15;;;12.93;;
70071;SDS011;57434;42.794;23.302;2023-01-15T04:47:24;26.95;;;11.18;;
70071;SDS011;57434;42.794;23.302;2023-01-15T04:48:26;28.20;;;11.57;;
70071;SDS011;57434;42.794;23.302;2023-01-15T04:49:27;23.75;;;11.90;;
70071;SDS011;57434;42.794;23.302;2023-01-15T04:50:29;27.02;;;12.00;;
70071;SDS011;57434;42.794;23.302;2023-01-15T04:51:31;29.00;;;13.40;;
70071;SDS011;57434;42.794;23.302;2023-01-15T04:52:33;28.63;;;11.43;;
70071;SDS011;57434;42.794;23.302;2023-01-15T04:53:34;24.17;;;10.50;;
70071;SDS011;57434;42.794;23.302;2023-01-15T04:54:36;23.33;;;10.63;;
70071;SDS011;57434;42.794;23.302;2023-01-15T04:55:38;26.17;;;11.07;;
70071;SDS011;57434;42.794;23.302;2023-01-15T04:56:44;23.50;;;9.25;;
70071;SDS011;57434;42.794;23.302;2023-01-15T04:57:48;25.10;;;10.98;;
70071;SDS011;57434;42.794;23.302;2023-01-15T04:58:50;23.77;;;10.00;;
70071;SDS011;57434;42.794;23.302;2023-01-15T04:59:52;23.48;;;10.65;;
70071;SDS011;57434;42.794;23.302;2023-01-15T05:00:54;22.92;;;9.48;;
70071;SDS011;57434;42.794;23.302;2023-01-15T05:01:55;21.97;;;10.03;;
70071;SDS011;57434;42.794;23.302;2023-01-15T05:03:06;25.90;;;10.85;;
70071;SDS011;57434;42.794;23.302;2023-01-15T05:04:08;22.98;;;9.95;;
70071;SDS011;57434;42.794;23.302;2023-01-15T05:05:10;25.38;;;9.70;;
70071;SDS011;57434;42.794;23.302;2023-01-15T05:06:11;25.02;;;10.23;;
70071;SDS011;57434;42.794;23.302;2023-01-15T05:07:13;23.80;;;10.07;;
70071;SDS011;57434;42.794;23.302;2023-01-15T05:08:15;24.05;;;9.88;;
70071;SDS011;57434;42.794;23.302;2023-01-15T05:09:17;27.58;;;11.30;;
70071;SDS011;57434;42.794;23.302;2023-01-15T05:10:19;23.25;;;9.18;;
70071;SDS011;57434;42.794;23.302;2023-01-15T05:11:21;22.10;;;9.52;;
70071;SDS011;57434;42.794;23.302;2023-01-15T05:12:22;25.57;;;10.83;;
70071;SDS011;57434;42.794;23.302;2023-01-15T05:13:24;28.38;;;10.82;;
70071;SDS011;57434;42.794;23.302;2023-01-15T05:14:26;25.27;;;10.93;;
70071;SDS011;57434;42.794;23.302;2023-01-15T05:15:28;23.77;;;10.65;;
70071;SDS011;57434;42.794;23.302;2023-01-15T05:16:30;23.48;;;9.55;;
70071;SDS011;57434;42.794;23.302;2023-01-15T05:17:32;21.77;;;9.32;;
70071;SDS011;57434;42.794;23.302;2023-01-15T05:18:34;25.20;;;11.27;;
70071;SDS011;57434;42.794;23.302;2023-01-15T05:19:36;28.90;;;11.02;;
70071;SDS011;57434;42.794;23.302;2023-01-15T05:20:38;28.52;;;11.60;;
70071;SDS011;57434;42.794;23.302;2023-01-15T05:21:41;29.42;;;12.60;;
70071;SDS011;57434;42.794;23.302;2023-01-15T05:22:44;34.83;;;14.30;;
70071;SDS011;57434;42.794;23.302;2023-01-15T05:23:46;35.15;;;16.35;;
70071;SDS011;57434;42.794;23.302;2023-01-15T05:24:49;39.17;;;18.02;;
70071;SDS011;57434;42.794;23.302;2023-01-15T05:25:51;37.65;;;17.75;;
70071;SDS011;57434;42.794;23.302;2023-01-15T05:26:53;35.10;;;15.68;;
70071;SDS011;57434;42.794;23.302;2023-01-15T05:27:54;35.58;;;15.35;;
70071;SDS011;57434;42.794;23.302;2023-01-15T05:28:57;29.02;;;13.57;;
70071;SDS011;57434;42.794;23.302;2023-01-15T05:30:00;38.42;;;15.88;;
70071;SDS011;57434;42.794;23.302;2023-01-15T05:31:05;45.55;;;20.83;;
70071;SDS011;57434;42.794;23.302;2023-01-15T05:32:12;37.10;;;15.68;;
70071;SDS011;57434;42.794;23.302;2023-01-15T05:33:14;34.83;;;14.93;;
70071;SDS011;57434;42.794;23.302;2023-01-15T05:34:15;35.45;;;14.43;;
70071;SDS011;57434;42.794;23.302;2023-01-15T05:35:17;37.17;;;15.10;;
70071;SDS011;57434;42.794;23.302;2023-01-15T05:36:28;36.60;;;14.95;;
70071;SDS011;57434;42.794;23.302;2023-01-15T05:37:31;29.38;;;12.10;;
70071;SDS011;57434;42.794;23.302;2023-01-15T05:38:33;32.25;;;11.88;;
70071;SDS011;57434;42.794;23.302;2023-01-15T05:39:35;26.92;;;11.35;;
70071;SDS011;57434;42.794;23.302;2023-01-15T05:40:37;31.35;;;12.75;;
70071;SDS011;57434;42.794;23.302;2023-01-15T05:41:39;34.60;;;14.25;;
70071;SDS011;57434;42.794;23.302;2023-01-15T05:42:41;31.48;;;14.20;;
70071;SDS011;57434;42.794;23.302;2023-01-15T05:43:42;34.40;;;14.97;;
70071;SDS011;57434;42.794;23.302;2023-01-15T05:44:44;35.13;;;15.60;;
70071;SDS011;57434;42.794;23.302;2023-01-15T05:45:46;34.03;;;16.88;;
70071;SDS011;57434;42.794;23.302;2023-01-15T05:46:48;37.63;;;15.82;;
70071;SDS011;57434;42.794;23.302;2023-01-15T05:47:52;35.30;;;14.85;;
70071;SDS011;57434;42.794;23.302;2023-01-15T05:48:57;31.00;;;13.55;;
70071;SDS011;57434;42.794;23.302;2023-01-15T05:50:00;29.00;;;12.57;;
70071;SDS011;57434;42.794;23.302;2023-01-15T05:51:02;33.20;;;13.70;;
70071;SDS011;57434;42.794;23.302;2023-01-15T05:52:04;30.08;;;14.02;;
70071;SDS011;57434;42.794;23.302;2023-01-15T05:53:06;31.45;;;13.85;;
70071;SDS011;57434;42.794;23.302;2023-01-15T05:54:10;30.60;;;13.87;;
70071;SDS011;57434;42.794;23.302;2023-01-15T05:55:14;29.80;;;13.05;;
70071;SDS011;57434;42.794;23.302;2023-01-15T05:56:16;31.35;;;14.18;;
70071;SDS011;57434;42.794;23.302;2023-01-15T05:57:18;30.33;;;14.10;;
70071;SDS011;57434;42.794;23.302;2023-01-15T05:58:20;34.10;;;14.18;;
70071;SDS011;57434;42.794;23.302;2023-01-15T05:59:22;36.50;;;14.38;;
70071;SDS011;57434;42.794;23.302;2023-01-15T06:00:26;28.23;;;13.20;;
70071;SDS011;57434;42.794;23.302;2023-01-15T06:01:30;33.25;;;14.40;;
70071;SDS011;57434;42.794;23.302;2023-01-15T06:02:32;32.53;;;14.55;;
70071;SDS011;57434;42.794;23.302;2023-01-15T06:03:34;32.22;;;14.00;;
70071;SDS011;57434;42.794;23.302;2023-01-15T06:04:36;35.97;;;14.77;;
70071;SDS011;57434;42.794;23.302;2023-01-15T06:05:38;36.80;;;14.25;;
70071;SDS011;57434;42.794;23.302;2023-01-15T06:06:40;29.90;;;13.90;;
70071;SDS011;57434;42.794;23.302;2023-01-15T06:07:43;34.30;;;14.05;;
70071;SDS011;57434;42.794;23.302;2023-01-15T06:08:45;36.90;;;15.85;;
70071;SDS011;57434;42.794;23.302;2023-01-15T06:09:47;33.97;;;14.20;;
70071;SDS011;57434;42.794;23.302;2023-01-15T06:10:49;33.25;;;15.05;;
70071;SDS011;57434;42.794;23.302;2023-01-15T06:11:51;31.75;;;13.35;;
70071;SDS011;57434;42.794;23.302;2023-01-15T06:12:53;29.15;;;13.27;;
70071;SDS011;57434;42.794;23.302;2023-01-15T06:13:54;31.92;;;14.13;;
70071;SDS011;57434;42.794;23.302;2023-01-15T06:14:56;29.53;;;13.53;;
70071;SDS011;57434;42.794;23.302;2023-01-15T06:15:58;38.17;;;14.38;;
70071;SDS011;57434;42.794;23.302;2023-01-15T06:17:01;32.38;;;13.75;;
70071;SDS011;57434;42.794;23.302;2023-01-15T06:18:03;31.15;;;13.30;;
70071;SDS011;57434;42.794;23.302;2023-01-15T06:19:05;37.10;;;16.05;;
70071;SDS011;57434;42.794;23.302;2023-01-15T06:20:08;42.35;;;18.52;;
70071;SDS011;57434;42.794;23.302;2023-01-15T06:21:11;47.20;;;20.23;;
70071;SDS011;57434;42.794;23.302;2023-01-15T06:22:14;41.35;;;17.77;;
70071;SDS011;57434;42.794;23.302;2023-01-15T06:23:16;42.33;;;17.48;;
70071;SDS011;57434;42.794;23.302;2023-01-15T06:24:18;45.25;;;17.52;;
70071;SDS011;57434;42.794;23.302;2023-01-15T06:25:20;39.90;;;17.33;;
70071;SDS011;57434;42.794;23.302;2023-01-15T06:26:22;40.28;;;16.88;;
70071;SDS011;57434;42.794;23.302;2023-01-15T06:27:24;39.28;;;16.88;;
70071;SDS011;57434;42.794;23.302;2023-01-15T06:28:27;44.63;;;19.35;;
70071;SDS011;57434;42.794;23.302;2023-01-15T06:29:29;39.40;;;18.50;;
70071;SDS011;57434;42.794;23.302;2023-01-15T06:30:30;37.15;;;16.17;;